Time;durP1;ratioP1;P1;durP2;ratioP2;P2;SDS_P1;SDS_P2;PMS_P1;PMS_P2;Temp;Humidity;BMP_temperature;BMP_pressure;BME280_temperature;BME280_humidity;BME280_pressure;Samples;Min_cycle;Max_cycle;Signal;HPM_P1;HPM_P2
2023/09/16 00:01:10;;;;;;;8.18;7.00;;;13.10;99.90;;;;;;4983694;28;20080;-81
2023/09/16 00:03:35;;;;;;;7.95;6.97;;;13.10;99.90;;;;;;5003375;28;20144;-81
2023/09/16 00:06:04;;;;;;;9.18;7.65;;;13.10;99.90;;;;;;4997424;28;20869;-81
2023/09/16 00:08:33;;;;;;;9.20;7.57;;;13.10;99.90;;;;;;4998446;28;20038;-81
2023/09/16 00:11:00;;;;;;;9.52;7.57;;;13.10;99.90;;;;;;4995286;28;20453;-82
2023/09/16 00:13:26;;;;;;;9.73;8.27;;;13.10;99.90;;;;;;4997546;28;20042;-81
2023/09/16 00:15:52;;;;;;;8.57;7.68;;;13.00;99.90;;;;;;5016091;28;20445;-82
2023/09/16 00:18:18;;;;;;;8.90;7.40;;;13.00;99.90;;;;;;5027293;28;20091;-82
2023/09/16 00:20:48;;;;;;;8.57;7.75;;;13.00;99.90;;;;;;5015647;28;20471;-81
2023/09/16 00:23:14;;;;;;;10.90;8.32;;;13.00;99.90;;;;;;5009097;28;20049;-82
2023/09/16 00:25:40;;;;;;;8.18;7.38;;;13.00;99.90;;;;;;5023943;28;20072;-82
2023/09/16 00:28:08;;;;;;;8.60;7.75;;;13.00;99.90;;;;;;4990127;28;20047;-81
2023/09/16 00:30:35;;;;;;;11.50;8.30;;;13.00;99.90;;;;;;5003250;28;20045;-81
2023/09/16 00:33:03;;;;;;;9.10;8.15;;;13.10;99.90;;;;;;5008076;28;20045;-81
2023/09/16 00:35:29;;;;;;;9.77;8.20;;;13.00;99.90;;;;;;5005342;28;20042;-81
2023/09/16 00:37:55;;;;;;;10.23;8.18;;;12.90;99.90;;;;;;5010134;28;20053;-81
2023/09/16 00:40:20;;;;;;;9.07;8.10;;;12.90;99.90;;;;;;4987856;28;20042;-82
2023/09/16 00:42:46;;;;;;;9.30;8.40;;;12.90;99.90;;;;;;5019366;28;20048;-82
2023/09/16 00:45:12;;;;;;;8.20;7.40;;;12.90;99.90;;;;;;4996267;28;20088;-81
2023/09/16 00:47:40;;;;;;;10.07;8.98;;;12.90;99.90;;;;;;5007780;28;20050;-81
2023/09/16 00:50:07;;;;;;;11.30;9.88;;;12.90;99.90;;;;;;4989521;28;20406;-81
2023/09/16 00:52:34;;;;;;;10.57;9.07;;;12.90;99.90;;;;;;5008816;28;20045;-81
2023/09/16 00:55:00;;;;;;;9.85;8.45;;;12.90;99.90;;;;;;5007913;28;20058;-81
2023/09/16 00:57:27;;;;;;;11.88;9.73;;;12.90;99.90;;;;;;5025032;28;20045;-81
2023/09/16 00:59:53;;;;;;;10.55;9.52;;;12.90;99.90;;;;;;5005494;28;20476;-82
2023/09/16 01:02:19;;;;;;;11.13;9.23;;;12.90;99.90;;;;;;5006021;28;20041;-82
2023/09/16 01:04:46;;;;;;;10.70;9.45;;;12.90;99.90;;;;;;4976818;28;20061;-82
2023/09/16 01:07:14;;;;;;;10.25;9.18;;;12.90;99.90;;;;;;5023541;28;20053;-82
2023/09/16 01:09:41;;;;;;;11.75;9.65;;;12.90;99.90;;;;;;5006061;28;20050;-82
2023/09/16 01:12:10;;;;;;;10.52;8.48;;;12.90;99.90;;;;;;5004832;28;20054;-82
2023/09/16 01:14:36;;;;;;;10.48;8.82;;;12.90;99.90;;;;;;4989262;28;20068;-80
2023/09/16 01:17:14;;;;;;;10.35;9.13;;;12.90;99.90;;;;;;5007611;28;20096;-80
2023/09/16 01:19:58;;;;;;;9.82;8.82;;;12.90;99.90;;;;;;4997787;28;20050;-81
2023/09/16 01:22:24;;;;;;;12.55;9.02;;;12.90;99.90;;;;;;4991444;28;20092;-81
2023/09/16 01:25:01;;;;;;;9.65;8.65;;;12.90;99.90;;;;;;5006151;28;20038;-81
2023/09/16 01:27:27;;;;;;;10.25;9.25;;;12.90;99.90;;;;;;4988975;28;20329;-81
2023/09/16 01:29:54;;;;;;;10.65;9.45;;;12.90;99.90;;;;;;4979060;28;20549;-81
2023/09/16 01:32:26;;;;;;;10.32;9.32;;;13.20;99.90;;;;;;4988111;28;20084;-82
2023/09/16 01:34:52;;;;;;;;;;;12.90;99.90;;;;;;4996410;28;20164;-80
2023/09/16 01:37:22;;;;;;;11.57;9.93;;;13.00;99.90;;;;;;5009220;28;19932;-80
2023/09/16 01:39:59;;;;;;;11.88;10.68;;;13.00;99.90;;;;;;5005810;28;20096;-81
2023/09/16 01:42:28;;;;;;;12.20;10.88;;;13.00;99.90;;;;;;5017881;28;20045;-81
2023/09/16 01:44:54;;;;;;;12.63;11.32;;;13.00;99.90;;;;;;5006833;28;20827;-81
2023/09/16 01:47:20;;;;;;;12.65;11.45;;;13.00;99.90;;;;;;5009910;28;20442;-82
2023/09/16 01:49:47;;;;;;;12.98;11.15;;;13.10;99.90;;;;;;5016201;28;20096;-81
2023/09/16 01:52:12;;;;;;;12.60;10.10;;;13.10;99.90;;;;;;5010972;28;20050;-81
2023/09/16 01:54:38;;;;;;;11.68;10.50;;;13.00;99.90;;;;;;4999597;28;20097;-82
2023/09/16 01:57:04;;;;;;;13.68;11.32;;;13.00;99.90;;;;;;5006874;28;20053;-81
2023/09/16 01:59:29;;;;;;;12.35;11.15;;;13.00;99.90;;;;;;5010083;28;20090;-82
2023/09/16 02:01:55;;;;;;;13.45;11.20;;;13.00;99.90;;;;;;5007368;28;20161;-81
2023/09/16 02:04:21;;;;;;;14.20;10.82;;;12.90;99.90;;;;;;5014180;28;20450;-82
2023/09/16 02:06:46;;;;;;;12.48;11.18;;;12.90;99.90;;;;;;5022520;28;20091;-81
2023/09/16 02:09:13;;;;;;;12.82;11.23;;;12.90;99.90;;;;;;5009227;28;20144;-81
2023/09/16 02:11:39;;;;;;;13.05;11.70;;;12.90;99.90;;;;;;4989208;28;20639;-81
2023/09/16 02:14:05;;;;;;;13.20;11.55;;;12.90;99.90;;;;;;5006761;28;20050;-81
2023/09/16 02:16:32;;;;;;;12.80;11.48;;;12.90;99.90;;;;;;5030613;28;20052;-82
2023/09/16 02:18:57;;;;;;;13.15;11.70;;;12.90;99.90;;;;;;5018989;28;20046;-82
2023/09/16 02:21:23;;;;;;;13.43;12.02;;;12.80;99.90;;;;;;4993432;28;20049;-82
2023/09/16 02:23:49;;;;;;;13.57;12.18;;;12.80;99.90;;;;;;4998606;28;20119;-82
2023/09/16 02:26:15;;;;;;;14.38;12.98;;;12.80;99.90;;;;;;4997291;28;20045;-82
2023/09/16 02:28:40;;;;;;;15.30;12.25;;;12.80;99.90;;;;;;4992646;28;20038;-82
2023/09/16 02:31:09;;;;;;;14.65;13.15;;;12.70;99.90;;;;;;5012228;28;20147;-80
2023/09/16 02:33:35;;;;;;;14.18;12.55;;;12.80;99.90;;;;;;5025473;28;20080;-80
2023/09/16 02:36:01;;;;;;;13.00;11.70;;;12.80;99.90;;;;;;5015647;28;20049;-81
2023/09/16 02:38:27;;;;;;;14.23;12.93;;;12.70;99.90;;;;;;5028012;28;20041;-81
2023/09/16 02:40:53;;;;;;;15.70;12.90;;;12.70;99.90;;;;;;5004644;28;20072;-81
2023/09/16 02:43:18;;;;;;;14.25;12.80;;;12.70;99.90;;;;;;5022973;28;20041;-81
2023/09/16 02:45:44;;;;;;;13.85;12.40;;;12.70;99.90;;;;;;5024711;28;20054;-81
2023/09/16 02:48:10;;;;;;;13.85;12.45;;;12.70;99.90;;;;;;5013854;28;20044;-81
2023/09/16 02:50:39;;;;;;;13.75;12.38;;;12.70;99.90;;;;;;5026906;28;20116;-83
2023/09/16 02:53:05;;;;;;;14.27;12.77;;;12.90;99.90;;;;;;5013338;28;20045;-82
2023/09/16 02:55:32;;;;;;;14.02;12.50;;;12.60;99.90;;;;;;5016458;28;20041;-80
2023/09/16 02:58:01;;;;;;;14.40;12.75;;;13.00;99.90;;;;;;5019596;28;20042;-81
2023/09/16 03:00:26;;;;;;;13.65;12.27;;;12.60;99.90;;;;;;4998013;28;20042;-81
2023/09/16 03:02:52;;;;;;;14.60;12.90;;;12.60;99.90;;;;;;5027509;28;20514;-82
2023/09/16 03:05:18;;;;;;;14.13;12.77;;;12.60;99.90;;;;;;5022709;28;20046;-81
2023/09/16 03:07:46;;;;;;;14.07;12.77;;;12.50;99.90;;;;;;5010823;28;20500;-82
2023/09/16 03:10:12;;;;;;;13.70;12.38;;;12.70;99.90;;;;;;5027976;28;20041;-81
2023/09/16 03:12:38;;;;;;;13.65;12.38;;;12.50;99.90;;;;;;4999437;28;20054;-81
2023/09/16 03:15:04;;;;;;;13.95;12.55;;;12.50;99.90;;;;;;5008847;28;20151;-81
2023/09/16 03:17:30;;;;;;;13.38;12.00;;;12.50;99.90;;;;;;5026650;28;20813;-81
2023/09/16 03:19:56;;;;;;;13.45;12.10;;;12.40;99.90;;;;;;5006740;28;20181;-81
2023/09/16 03:22:22;;;;;;;13.30;12.00;;;12.60;99.90;;;;;;4993031;28;20076;-81
2023/09/16 03:24:48;;;;;;;14.25;11.85;;;12.40;99.90;;;;;;5009789;28;20073;-81
2023/09/16 03:27:14;;;;;;;15.35;12.43;;;12.40;99.90;;;;;;4999264;28;20049;-81
2023/09/16 03:29:39;;;;;;;13.35;12.05;;;12.40;99.90;;;;;;5010139;28;20125;-81
2023/09/16 03:32:05;;;;;;;12.90;11.52;;;12.30;99.90;;;;;;4992738;28;20054;-81
2023/09/16 03:34:30;;;;;;;14.30;12.95;;;12.30;99.90;;;;;;5009438;28;20038;-81
2023/09/16 03:36:56;;;;;;;13.70;12.02;;;12.30;99.90;;;;;;5009740;28;20739;-81
2023/09/16 03:39:22;;;;;;;14.13;12.73;;;12.20;99.90;;;;;;5010307;28;20393;-81
2023/09/16 03:41:48;;;;;;;13.52;12.13;;;12.20;99.90;;;;;;5022694;28;20041;-81
2023/09/16 03:44:15;;;;;;;13.15;11.85;;;12.20;99.90;;;;;;5022935;28;20049;-81
2023/09/16 03:46:40;;;;;;;13.35;12.00;;;12.10;99.90;;;;;;5001903;28;20046;-82
2023/09/16 03:49:06;;;;;;;13.48;12.13;;;12.10;99.90;;;;;;4991164;28;20041;-82
2023/09/16 03:51:36;;;;;;;12.98;11.68;;;12.10;99.90;;;;;;5008756;28;20095;-82
2023/09/16 03:54:02;;;;;;;12.63;11.43;;;12.10;99.90;;;;;;5011410;28;20676;-80
2023/09/16 03:56:28;;;;;;;13.40;11.27;;;12.10;99.90;;;;;;5011441;28;20064;-81
2023/09/16 03:58:55;;;;;;;13.32;11.93;;;12.00;99.90;;;;;;5028025;28;20527;-81
2023/09/16 04:01:21;;;;;;;12.48;11.18;;;12.00;99.90;;;;;;5029466;28;20045;-81
2023/09/16 04:03:47;;;;;;;12.90;11.60;;;12.00;99.90;;;;;;5011651;28;20670;-80
2023/09/16 04:06:12;;;;;;;12.88;11.45;;;12.00;99.90;;;;;;4996344;28;20045;-81
2023/09/16 04:08:38;;;;;;;13.45;12.05;;;12.00;99.90;;;;;;4993653;28;20125;-81
2023/09/16 04:11:03;;;;;;;13.25;11.07;;;12.00;99.90;;;;;;5029501;28;20416;-81
2023/09/16 04:13:29;;;;;;;13.95;12.00;;;11.90;99.90;;;;;;5022050;28;20115;-81
2023/09/16 04:15:55;;;;;;;13.30;11.20;;;11.90;99.90;;;;;;5009513;28;20061;-82
2023/09/16 04:18:22;;;;;;;13.48;12.07;;;11.90;99.90;;;;;;5011529;28;20050;-82
2023/09/16 04:20:48;;;;;;;13.18;11.93;;;11.90;99.90;;;;;;5012999;28;20114;-81
2023/09/16 04:23:14;;;;;;;13.98;12.23;;;11.90;99.90;;;;;;4997582;28;20073;-82
2023/09/16 04:25:40;;;;;;;13.85;12.55;;;11.90;99.90;;;;;;4991509;28;20042;-79
2023/09/16 04:28:06;;;;;;;13.88;12.57;;;11.90;99.90;;;;;;4995180;28;20172;-80
2023/09/16 04:30:39;;;;;;;13.93;12.48;;;11.80;99.90;;;;;;5008782;28;20065;-80
2023/09/16 04:33:04;;;;;;;13.57;12.27;;;11.90;99.90;;;;;;5005300;28;20507;-80
2023/09/16 04:35:31;;;;;;;13.93;12.52;;;11.80;99.90;;;;;;4989097;28;20073;-82
2023/09/16 04:37:56;;;;;;;14.60;12.75;;;11.80;99.90;;;;;;5010617;28;20097;-82
2023/09/16 04:40:22;;;;;;;12.63;11.32;;;11.80;99.90;;;;;;4985055;28;20062;-80
2023/09/16 04:42:48;;;;;;;13.23;11.23;;;11.80;99.90;;;;;;4992483;28;20053;-81
2023/09/16 04:45:15;;;;;;;13.00;11.77;;;11.80;99.90;;;;;;5011247;28;20041;-81
2023/09/16 04:47:41;;;;;;;12.60;11.32;;;11.70;99.90;;;;;;5025737;28;20045;-82
2023/09/16 04:50:07;;;;;;;12.63;11.43;;;11.70;99.90;;;;;;4999665;28;20415;-81
2023/09/16 04:52:33;;;;;;;13.15;11.45;;;11.70;99.90;;;;;;5003420;28;20057;-80
2023/09/16 04:54:58;;;;;;;12.27;11.07;;;11.70;99.90;;;;;;4998992;28;20050;-81
2023/09/16 04:57:25;;;;;;;12.82;11.55;;;11.70;99.90;;;;;;4995916;28;20521;-80
2023/09/16 04:59:51;;;;;;;12.70;11.48;;;11.70;99.90;;;;;;4994715;28;20112;-80
2023/09/16 05:02:17;;;;;;;13.57;11.02;;;11.60;99.90;;;;;;5013225;28;20479;-80
2023/09/16 05:04:42;;;;;;;12.25;11.05;;;11.60;99.90;;;;;;5009473;28;20048;-81
2023/09/16 05:07:08;;;;;;;12.07;10.98;;;11.60;99.90;;;;;;4991385;28;20136;-82
2023/09/16 05:09:34;;;;;;;11.55;10.45;;;11.60;99.90;;;;;;4999532;28;20107;-81
2023/09/16 05:12:00;;;;;;;11.48;10.38;;;11.60;99.90;;;;;;5024504;28;20049;-82
2023/09/16 05:14:26;;;;;;;12.18;10.80;;;11.60;99.90;;;;;;4999088;28;20050;-81
2023/09/16 05:16:51;;;;;;;12.07;10.98;;;11.60;99.90;;;;;;5008137;28;20049;-81
2023/09/16 05:19:17;;;;;;;11.77;10.68;;;11.60;99.90;;;;;;4975173;28;20053;-82
2023/09/16 05:21:42;;;;;;;12.25;11.15;;;11.60;99.90;;;;;;5008476;28;20041;-81
2023/09/16 05:24:08;;;;;;;13.98;9.68;;;11.60;99.90;;;;;;5011901;28;20042;-81
2023/09/16 05:26:34;;;;;;;10.68;9.77;;;11.70;99.90;;;;;;4991191;28;20042;-81
2023/09/16 05:29:00;;;;;;;10.60;9.70;;;11.70;99.90;;;;;;4991031;28;20850;-81
2023/09/16 05:31:26;;;;;;;11.18;10.00;;;11.70;99.90;;;;;;5017589;28;20041;-81
2023/09/16 05:33:52;;;;;;;10.63;9.63;;;11.90;99.90;;;;;;5007681;28;20067;-81
2023/09/16 05:36:19;;;;;;;10.55;9.55;;;11.70;99.90;;;;;;5009542;28;20041;-81
2023/09/16 05:38:44;;;;;;;11.50;10.40;;;11.70;99.90;;;;;;5001140;28;20120;-82
2023/09/16 05:41:10;;;;;;;12.18;11.07;;;11.70;99.90;;;;;;5027103;28;20124;-82
2023/09/16 05:43:35;;;;;;;10.90;9.93;;;11.70;99.90;;;;;;5027808;28;20061;-82
2023/09/16 05:46:01;;;;;;;12.32;11.13;;;11.80;99.90;;;;;;5026269;28;20203;-82
2023/09/16 05:48:28;;;;;;;11.35;10.35;;;11.80;99.90;;;;;;4993889;28;20064;-82
2023/09/16 05:51:03;;;;;;;11.38;10.25;;;11.80;99.90;;;;;;5003596;28;20524;-82
2023/09/16 05:53:31;;;;;;;10.68;9.75;;;11.90;99.90;;;;;;5035198;28;20076;-82
2023/09/16 05:55:57;;;;;;;11.45;10.43;;;11.80;99.90;;;;;;5051501;28;20045;-85
2023/09/16 05:58:23;;;;;;;10.25;9.25;;;11.90;99.90;;;;;;5024838;28;20076;-82
2023/09/16 06:00:56;;;;;;;11.45;10.35;;;11.90;99.90;;;;;;5013526;28;20421;-82
2023/09/16 06:03:21;;;;;;;11.60;10.40;;;11.90;99.90;;;;;;4996677;28;20089;-82
2023/09/16 06:05:47;;;;;;;12.05;10.95;;;11.90;99.90;;;;;;4995295;28;20088;-82
2023/09/16 06:08:13;;;;;;;12.07;10.95;;;12.00;99.90;;;;;;5013476;28;20052;-82
2023/09/16 06:10:39;;;;;;;11.52;10.52;;;12.10;99.90;;;;;;5023945;28;20570;-83
2023/09/16 06:13:05;;;;;;;12.65;11.27;;;12.10;99.90;;;;;;4994755;28;20153;-84
2023/09/16 06:15:30;;;;;;;14.30;11.40;;;12.30;99.90;;;;;;5003768;28;20065;-83
2023/09/16 06:17:56;;;;;;;12.02;10.82;;;12.40;99.90;;;;;;5011356;28;20419;-82
2023/09/16 06:20:22;;;;;;;12.75;11.52;;;12.50;99.90;;;;;;4994377;28;20058;-82
2023/09/16 06:22:47;;;;;;;12.98;11.68;;;12.60;99.90;;;;;;4994577;28;20085;-82
2023/09/16 06:25:14;;;;;;;13.85;12.55;;;12.70;99.90;;;;;;4993157;28;20053;-83
2023/09/16 06:27:39;;;;;;;13.88;12.50;;;12.80;99.90;;;;;;5009603;28;20053;-83
2023/09/16 06:30:05;;;;;;;14.93;13.48;;;13.00;99.90;;;;;;4993330;28;20054;-82
2023/09/16 06:32:31;;;;;;;15.63;14.02;;;13.10;99.90;;;;;;5011138;28;20526;-82
2023/09/16 06:34:57;;;;;;;15.50;13.90;;;13.20;99.90;;;;;;4993183;28;20042;-83
2023/09/16 06:37:22;;;;;;;14.40;12.90;;;13.30;99.90;;;;;;4977151;28;20046;-83
2023/09/16 06:39:48;;;;;;;17.23;15.52;;;13.30;99.90;;;;;;4977175;28;20057;-83
2023/09/16 06:42:14;;;;;;;15.90;14.30;;;13.50;99.90;;;;;;5029121;28;20106;-82
2023/09/16 06:44:40;;;;;;;15.73;14.13;;;13.70;99.90;;;;;;5017017;28;20474;-83
2023/09/16 06:47:05;;;;;;;18.75;16.02;;;13.80;99.90;;;;;;5014068;28;20080;-84
2023/09/16 06:49:31;;;;;;;17.30;15.55;;;13.90;99.90;;;;;;5030031;28;20099;-83
2023/09/16 06:51:56;;;;;;;18.85;15.02;;;14.10;99.90;;;;;;5013065;28;20095;-83
2023/09/16 06:54:22;;;;;;;14.90;13.48;;;14.20;99.90;;;;;;5030559;28;20594;-82
2023/09/16 06:56:48;;;;;;;17.08;15.38;;;14.30;99.90;;;;;;5009034;28;20046;-83
2023/09/16 06:59:13;;;;;;;15.35;13.85;;;14.10;99.90;;;;;;4991176;28;20104;-83
2023/09/16 07:01:39;;;;;;;17.08;15.32;;;14.60;99.90;;;;;;4993815;28;20122;-82
2023/09/16 07:04:05;;;;;;;16.52;15.02;;;14.70;99.90;;;;;;4993068;28;20050;-84
2023/09/16 07:06:30;;;;;;;17.45;15.65;;;14.70;99.90;;;;;;4992888;28;20384;-84
2023/09/16 07:08:56;;;;;;;16.77;15.13;;;14.80;99.90;;;;;;4993239;28;20129;-82
2023/09/16 07:11:22;;;;;;;15.93;14.20;;;14.80;99.90;;;;;;4991135;28;20845;-83
2023/09/16 07:13:47;;;;;;;14.68;13.13;;;15.00;99.90;;;;;;5012552;28;20049;-83
2023/09/16 07:16:13;;;;;;;14.20;12.70;;;15.10;99.90;;;;;;5012036;28;20590;-83
2023/09/16 07:18:39;;;;;;;15.07;13.65;;;15.20;99.90;;;;;;5012238;28;20042;-83
2023/09/16 07:21:06;;;;;;;15.18;13.60;;;15.20;99.90;;;;;;5012238;28;20403;-84
2023/09/16 07:23:32;;;;;;;15.43;13.93;;;15.30;99.90;;;;;;5012244;28;20050;-83
2023/09/16 07:25:59;;;;;;;14.95;13.30;;;15.30;99.90;;;;;;5024558;28;20041;-83
2023/09/16 07:28:29;;;;;;;15.40;13.73;;;15.40;99.90;;;;;;5050110;28;20060;-82
2023/09/16 07:30:55;;;;;;;15.63;14.02;;;15.50;99.90;;;;;;5049528;28;20126;-83
2023/09/16 07:33:24;;;;;;;14.30;13.00;;;15.40;99.90;;;;;;5031734;28;20090;-83
2023/09/16 07:35:51;;;;;;;15.80;13.68;;;15.40;99.90;;;;;;5046623;28;20048;-81
2023/09/16 07:38:16;;;;;;;15.15;13.60;;;15.60;99.90;;;;;;5030438;28;20041;-82
2023/09/16 07:40:42;;;;;;;14.60;13.20;;;15.60;99.90;;;;;;5047259;28;20063;-82
2023/09/16 07:43:09;;;;;;;13.68;12.20;;;15.80;99.90;;;;;;5048598;28;20052;-83
2023/09/16 07:45:36;;;;;;;13.52;12.10;;;15.90;99.90;;;;;;5015285;28;20186;-84
2023/09/16 07:48:02;;;;;;;14.48;12.82;;;16.00;99.90;;;;;;5014771;28;20119;-83
2023/09/16 07:50:28;;;;;;;14.48;13.10;;;16.10;99.90;;;;;;5010661;28;20046;-82
2023/09/16 07:52:53;;;;;;;14.27;12.80;;;16.20;99.90;;;;;;5006575;28;20045;-83
2023/09/16 07:55:19;;;;;;;13.82;12.57;;;16.10;99.90;;;;;;5045991;28;20448;-84
2023/09/16 07:57:45;;;;;;;13.88;12.57;;;16.10;99.90;;;;;;5049248;28;20056;-83
2023/09/16 08:00:11;;;;;;;14.98;13.52;;;16.20;99.90;;;;;;5048161;28;20073;-83
2023/09/16 08:02:37;;;;;;;14.38;12.88;;;16.20;99.90;;;;;;5045150;28;20044;-83
2023/09/16 08:05:03;;;;;;;15.23;13.43;;;16.20;99.90;;;;;;5027780;28;20045;-83
2023/09/16 08:07:29;;;;;;;15.07;13.57;;;16.20;99.90;;;;;;5027758;28;20033;-82
2023/09/16 08:09:54;;;;;;;14.18;12.88;;;16.30;99.90;;;;;;5026969;28;20636;-83
2023/09/16 08:12:23;;;;;;;14.45;13.20;;;16.40;99.90;;;;;;5027845;28;20128;-83
2023/09/16 08:14:49;;;;;;;14.52;13.07;;;16.50;99.90;;;;;;5026610;28;20057;-83
2023/09/16 08:17:14;;;;;;;13.88;12.50;;;16.70;99.90;;;;;;5024288;28;20044;-84
2023/09/16 08:19:40;;;;;;;12.68;11.45;;;16.80;99.90;;;;;;4996691;28;20657;-83
2023/09/16 08:22:05;;;;;;;13.45;12.10;;;16.90;99.90;;;;;;5010607;28;20236;-85
2023/09/16 08:24:31;;;;;;;13.73;12.40;;;17.20;99.90;;;;;;5009639;28;20042;-85
2023/09/16 08:26:56;;;;;;;13.90;12.35;;;17.70;99.90;;;;;;4992110;28;20189;-84
2023/09/16 08:29:22;;;;;;;12.73;11.52;;;17.70;99.90;;;;;;5002626;28;20049;-84
2023/09/16 08:31:48;;;;;;;14.18;11.15;;;17.60;99.90;;;;;;5005896;28;21459;-84
2023/09/16 08:34:13;;;;;;;13.05;11.75;;;17.70;99.90;;;;;;4997013;28;20554;-84
2023/09/16 08:36:39;;;;;;;11.85;10.73;;;17.90;99.90;;;;;;5014444;28;20061;-84
2023/09/16 08:39:04;;;;;;;11.50;10.43;;;17.90;99.90;;;;;;5007246;28;20071;-84
2023/09/16 08:41:54;;;;;;;12.40;11.15;;;18.00;99.90;;;;;;4999132;28;20132;-84
2023/09/16 08:44:23;;;;;;;12.02;10.93;;;18.20;99.90;;;;;;4997702;28;20053;-85
2023/09/16 08:46:54;;;;;;;11.63;10.45;;;18.50;99.90;;;;;;4992416;28;20096;-84
2023/09/16 08:49:24;;;;;;;10.98;9.88;;;18.50;99.90;;;;;;5029450;28;20045;-85
2023/09/16 08:51:52;;;;;;;12.15;10.95;;;18.60;99.90;;;;;;5000525;28;20053;-85
2023/09/16 08:54:22;;;;;;;11.07;10.05;;;18.80;99.90;;;;;;5010057;28;20464;-85
2023/09/16 08:56:49;;;;;;;11.38;10.13;;;18.90;99.90;;;;;;5006228;28;20579;-85
2023/09/16 08:59:14;;;;;;;10.02;9.02;;;19.30;99.90;;;;;;5001342;28;20137;-85
2023/09/16 09:01:42;;;;;;;10.45;9.45;;;19.20;99.90;;;;;;5005850;28;20128;-85
2023/09/16 09:04:09;;;;;;;10.10;9.18;;;19.30;99.90;;;;;;5017253;28;20071;-85
2023/09/16 09:06:36;;;;;;;10.20;8.98;;;19.50;99.90;;;;;;5008063;28;20049;-85
2023/09/16 09:09:02;;;;;;;8.50;7.80;;;19.60;99.90;;;;;;4979130;28;20053;-84
2023/09/16 09:11:31;;;;;;;8.50;7.70;;;19.70;99.90;;;;;;5006784;28;20064;-84
2023/09/16 09:13:58;;;;;;;9.10;8.20;;;19.90;99.90;;;;;;5007949;28;20045;-86
2023/09/16 09:16:26;;;;;;;8.18;7.38;;;20.30;99.90;;;;;;5012646;28;20096;-81
2023/09/16 09:18:56;;;;;;;8.40;7.55;;;20.40;99.90;;;;;;5022673;28;20061;-82
2023/09/16 09:21:22;;;;;;;8.32;7.53;;;20.20;99.90;;;;;;5018543;28;20499;-81
2023/09/16 09:23:48;;;;;;;6.95;6.32;;;20.20;99.90;;;;;;5030525;28;20050;-82
2023/09/16 09:26:14;;;;;;;7.95;6.95;;;20.40;99.90;;;;;;5027091;28;20050;-82
2023/09/16 09:28:44;;;;;;;7.28;6.57;;;20.60;99.90;;;;;;5010211;28;20037;-82
2023/09/16 09:31:11;;;;;;;6.53;6.03;;;20.70;99.90;;;;;;5027454;28;20048;-82
2023/09/16 09:33:42;;;;;;;7.60;6.90;;;20.80;99.90;;;;;;5038452;28;20037;-82
2023/09/16 09:36:14;;;;;;;7.97;7.10;;;20.90;99.90;;;;;;5046832;28;20135;-82
2023/09/16 09:38:41;;;;;;;6.88;6.18;;;20.80;99.90;;;;;;5032605;28;20084;-81
2023/09/16 09:41:07;;;;;;;7.53;6.20;;;20.80;99.90;;;;;;5010732;28;20069;-81
2023/09/16 09:43:33;;;;;;;6.60;6.00;;;20.90;99.90;;;;;;5028475;28;20049;-85
2023/09/16 09:45:59;;;;;;;6.30;5.70;;;20.80;99.90;;;;;;5038005;28;20052;-85
2023/09/16 09:48:25;;;;;;;7.07;6.35;;;21.00;99.90;;;;;;5014247;28;20520;-83
2023/09/16 09:50:50;;;;;;;6.72;5.97;;;21.10;99.90;;;;;;5009198;28;20077;-84
2023/09/16 09:53:16;;;;;;;6.68;6.05;;;21.00;99.90;;;;;;4997334;28;20125;-85
2023/09/16 09:55:43;;;;;;;7.40;6.32;;;21.00;99.90;;;;;;5041180;28;20224;-86
2023/09/16 09:58:09;;;;;;;7.22;6.53;;;21.00;99.90;;;;;;5009601;28;20099;-84
2023/09/16 10:00:35;;;;;;;6.57;6.05;;;20.90;99.90;;;;;;5018342;28;20076;-85
2023/09/16 10:03:01;;;;;;;7.25;6.63;;;21.00;99.90;;;;;;5008779;28;20443;-84
2023/09/16 10:05:27;;;;;;;8.10;6.32;;;21.00;99.90;;;;;;5008680;28;20380;-86
2023/09/16 10:07:53;;;;;;;7.10;6.50;;;21.20;99.90;;;;;;5008829;28;20129;-85
2023/09/16 10:10:25;;;;;;;7.38;5.93;;;21.20;99.90;;;;;;5011625;28;20069;-85
2023/09/16 10:12:53;;;;;;;6.05;5.47;;;21.50;99.90;;;;;;5027113;28;20053;-85
2023/09/16 10:15:28;;;;;;;5.88;5.25;;;21.70;99.90;;;;;;5020444;28;20053;-85
2023/09/16 10:17:56;;;;;;;5.35;4.85;;;21.70;99.90;;;;;;4992109;28;20542;-85
2023/09/16 10:20:22;;;;;;;5.65;4.68;;;21.70;99.90;;;;;;4994947;28;20092;-85
2023/09/16 10:22:48;;;;;;;6.95;5.18;;;21.80;99.90;;;;;;5027368;28;20228;-85
2023/09/16 10:25:16;;;;;;;4.82;4.43;;;22.00;99.90;;;;;;5026558;28;20091;-85
2023/09/16 10:27:48;;;;;;;5.10;4.60;;;22.10;99.90;;;;;;5029717;28;20046;-84
2023/09/16 10:30:14;;;;;;;5.90;5.32;;;22.20;99.90;;;;;;4997369;28;20046;-84
2023/09/16 10:32:40;;;;;;;5.35;4.85;;;22.40;99.90;;;;;;5025565;28;20049;-83
2023/09/16 10:35:07;;;;;;;5.15;4.55;;;22.50;99.90;;;;;;5031165;28;20120;-84
2023/09/16 10:37:35;;;;;;;7.43;5.18;;;22.50;99.90;;;;;;5030390;28;20034;-84
2023/09/16 10:40:04;;;;;;;4.97;4.47;;;22.60;99.90;;;;;;5030409;28;20045;-83
2023/09/16 10:42:33;;;;;;;4.82;4.43;;;22.70;99.90;;;;;;5021894;28;20144;-84
2023/09/16 10:45:01;;;;;;;6.15;4.20;;;22.70;99.90;;;;;;5051629;28;20483;-84
2023/09/16 10:47:27;;;;;;;3.90;3.60;;;23.10;99.90;;;;;;5041866;28;20087;-84
2023/09/16 10:49:53;;;;;;;4.63;4.10;;;23.10;99.90;;;;;;5024042;28;20056;-84
2023/09/16 10:52:31;;;;;;;5.20;3.53;;;23.10;99.90;;;;;;5005365;28;20885;-84
2023/09/16 10:55:07;;;;;;;6.13;3.90;;;23.20;99.90;;;;;;5013122;28;20049;-83
2023/09/16 10:58:03;;;;;;;3.65;3.22;;;23.30;99.90;;;;;;5028375;28;20067;-83
2023/09/16 11:00:54;;;;;;;3.70;3.38;;;23.40;99.90;;;;;;5001370;28;20577;-84
2023/09/16 11:03:30;;;;;;;4.07;3.00;;;23.40;99.90;;;;;;5024269;28;20045;-85
2023/09/16 11:06:00;;;;;;;3.83;2.97;;;23.70;99.90;;;;;;5015570;28;20045;-84
2023/09/16 11:08:26;;;;;;;3.67;3.33;;;23.80;99.90;;;;;;5014762;28;20050;-85
2023/09/16 11:10:53;;;;;;;3.42;3.00;;;23.60;99.90;;;;;;5011395;28;20034;-85
2023/09/16 11:13:20;;;;;;;3.08;2.88;;;23.50;99.90;;;;;;5012048;28;20054;-83
2023/09/16 11:15:46;;;;;;;3.92;2.90;;;23.60;99.90;;;;;;4992946;28;20096;-84
2023/09/16 11:18:17;;;;;;;2.90;2.60;;;23.60;99.80;;;;;;5010442;28;20397;-83
2023/09/16 11:20:43;;;;;;;4.65;2.78;;;23.70;98.00;;;;;;5001598;28;20041;-82
2023/09/16 11:23:09;;;;;;;2.72;2.17;;;23.90;96.30;;;;;;5032337;28;20131;-82
2023/09/16 11:25:40;;;;;;;4.53;2.78;;;24.00;93.80;;;;;;5037297;28;20053;-83
2023/09/16 11:28:11;;;;;;;4.65;3.20;;;24.10;92.20;;;;;;5003724;28;20048;-83
2023/09/16 11:30:38;;;;;;;3.80;3.40;;;24.10;94.00;;;;;;4994842;28;20061;-84
2023/09/16 11:33:08;;;;;;;3.42;3.03;;;24.10;95.30;;;;;;5029167;28;20284;-84
2023/09/16 11:35:37;;;;;;;5.65;3.92;;;24.20;95.00;;;;;;4993529;28;20080;-83
2023/09/16 11:38:02;;;;;;;3.92;3.30;;;24.20;94.20;;;;;;4994168;28;20041;-83
2023/09/16 11:40:31;;;;;;;3.78;3.30;;;24.10;94.70;;;;;;5029437;28;20040;-85
2023/09/16 11:42:58;;;;;;;3.00;2.65;;;24.10;94.80;;;;;;5030033;28;20524;-85
2023/09/16 11:45:25;;;;;;;6.57;3.45;;;24.20;95.10;;;;;;5009404;28;20041;-85
2023/09/16 11:47:52;;;;;;;3.40;2.97;;;24.20;94.70;;;;;;5010471;28;20772;-87
2023/09/16 11:50:26;;;;;;;3.70;3.05;;;24.30;95.00;;;;;;5009638;28;20128;-86
2023/09/16 11:52:53;;;;;;;3.10;2.60;;;24.40;95.70;;;;;;5010069;28;20096;-83
2023/09/16 11:55:19;;;;;;;5.00;2.70;;;24.30;94.30;;;;;;5009574;28;20060;-86
2023/09/16 11:57:46;;;;;;;4.00;2.42;;;24.60;92.40;;;;;;5033406;28;20121;-85
2023/09/16 12:00:12;;;;;;;3.03;2.50;;;24.60;91.20;;;;;;5021643;28;20052;-85
2023/09/16 12:02:40;;;;;;;3.00;2.70;;;24.50;90.90;;;;;;5009333;28;20083;-84
2023/09/16 12:05:06;;;;;;;3.47;2.80;;;24.60;90.90;;;;;;5004087;28;20049;-85
2023/09/16 12:07:34;;;;;;;2.88;2.67;;;24.60;90.60;;;;;;5014355;28;20053;-85
2023/09/16 12:10:02;;;;;;;3.20;2.30;;;24.90;90.50;;;;;;5031297;28;20047;-86
2023/09/16 12:12:28;;;;;;;3.72;2.63;;;24.70;89.30;;;;;;5049721;28;20080;-86
2023/09/16 12:14:55;;;;;;;2.42;2.22;;;24.70;88.20;;;;;;5031206;28;20532;-86
2023/09/16 12:17:23;;;;;;;4.88;2.30;;;24.90;87.50;;;;;;5006978;28;20052;-88
2023/09/16 12:19:58;;;;;;;11.57;2.50;;;24.70;86.30;;;;;;5019416;28;20049;-87
2023/09/16 12:22:24;;;;;;;4.40;2.28;;;24.80;84.80;;;;;;5024833;28;20128;-88
2023/09/16 12:24:53;;;;;;;4.30;2.42;;;24.90;83.40;;;;;;5019316;28;20045;-85
2023/09/16 12:27:20;;;;;;;2.92;2.10;;;25.10;82.20;;;;;;5024091;28;20065;-85
2023/09/16 12:29:46;;;;;;;3.65;2.63;;;25.20;81.40;;;;;;5026945;28;20037;-86
2023/09/16 12:32:14;;;;;;;2.65;2.22;;;25.10;79.80;;;;;;5014177;28;20037;-86
2023/09/16 12:34:41;;;;;;;2.78;2.47;;;25.30;80.00;;;;;;5026364;28;20577;-85